createdAt,value
2018-11-05T00:02:07.831Z,9.23
2018-11-05T00:05:11.922Z,9.13
2018-11-05T00:08:16.026Z,8.99
2018-11-05T00:11:20.122Z,8.98
2018-11-05T00:14:24.219Z,8.88
2018-11-05T00:17:28.349Z,8.84
2018-11-05T00:20:32.450Z,8.81
2018-11-05T00:23:36.552Z,8.76
2018-11-05T00:26:40.646Z,8.67
2018-11-05T00:29:44.738Z,8.66
2018-11-05T00:32:48.830Z,8.61
2018-11-05T00:35:52.921Z,8.57
2018-11-05T00:38:57.014Z,8.58
2018-11-05T00:42:01.113Z,8.48
2018-11-05T00:45:06.594Z,8.40
2018-11-05T00:48:10.692Z,8.44
2018-11-05T00:51:14.790Z,8.44
2018-11-05T00:54:19.712Z,8.33
2018-11-05T00:57:23.806Z,8.26
2018-11-05T01:00:27.953Z,8.37
2018-11-05T01:03:32.058Z,8.40
2018-11-05T01:06:36.153Z,8.31
2018-11-05T01:09:40.259Z,8.26
2018-11-05T01:12:44.370Z,8.14
2018-11-05T01:15:48.469Z,8.13
2018-11-05T01:18:52.571Z,8.06
2018-11-05T01:21:56.680Z,8.15
2018-11-05T01:25:00.847Z,8.12
2018-11-05T01:28:05.126Z,8.12
2018-11-05T01:31:09.210Z,8.27
2018-11-05T01:34:13.304Z,8.16
2018-11-05T01:37:17.515Z,8.11
2018-11-05T01:40:21.567Z,8.10
2018-11-05T01:43:25.721Z,8.09
2018-11-05T01:46:29.874Z,8.08
2018-11-05T01:49:34.074Z,8.18
2018-11-05T01:52:38.230Z,8.10
2018-11-05T01:55:42.383Z,7.99
2018-11-05T01:58:46.533Z,7.85
2018-11-05T02:01:50.678Z,7.85
2018-11-05T02:04:54.826Z,7.79
2018-11-05T02:07:58.978Z,7.72
2018-11-05T02:11:03.134Z,7.72
2018-11-05T02:14:07.278Z,7.66
2018-11-05T02:17:11.462Z,7.71
2018-11-05T02:20:16.530Z,7.89
2018-11-05T02:23:20.693Z,7.75
2018-11-05T02:26:24.798Z,7.74
2018-11-05T02:29:28.912Z,7.63
2018-11-05T02:32:33.037Z,7.56
2018-11-05T02:35:37.150Z,7.66
2018-11-05T02:38:41.274Z,7.69
2018-11-05T02:41:45.372Z,7.73
2018-11-05T02:44:49.477Z,7.80
2018-11-05T02:47:53.594Z,7.59
2018-11-05T02:50:57.701Z,7.49
2018-11-05T02:54:01.915Z,7.53
2018-11-05T02:57:06.332Z,7.49
2018-11-05T03:00:13.532Z,7.40
2018-11-05T03:03:17.816Z,7.40
2018-11-05T03:06:21.818Z,7.58
2018-11-05T03:09:25.985Z,7.57
2018-11-05T03:12:30.126Z,7.61
2018-11-05T03:15:34.269Z,7.62
2018-11-05T03:18:38.417Z,7.51
2018-11-05T03:21:42.566Z,7.49
2018-11-05T03:24:46.741Z,7.51
2018-11-05T03:27:50.926Z,7.58
2018-11-05T03:30:55.059Z,7.42
2018-11-05T03:33:59.218Z,7.40
2018-11-05T03:37:03.539Z,7.27
2018-11-05T03:40:08.041Z,7.17
2018-11-05T03:43:12.198Z,7.17
2018-11-05T03:46:16.342Z,7.15
2018-11-05T03:49:20.562Z,7.09
2018-11-05T03:52:24.664Z,7.02
2018-11-05T03:55:28.799Z,7.17
2018-11-05T03:58:32.908Z,7.20
2018-11-05T04:01:37.016Z,7.04
2018-11-05T04:04:41.161Z,7.11
2018-11-05T04:07:45.280Z,7.29
2018-11-05T04:10:49.394Z,7.05
2018-11-05T04:13:53.508Z,7.02
2018-11-05T04:16:57.614Z,7.06
2018-11-05T04:20:01.719Z,7.14
2018-11-05T04:23:06.003Z,7.07
2018-11-05T04:26:10.106Z,6.97
2018-11-05T04:29:14.227Z,6.88
2018-11-05T04:32:18.438Z,7.05
2018-11-05T04:35:22.555Z,7.18
2018-11-05T04:38:26.654Z,6.95
2018-11-05T04:41:30.757Z,6.96
2018-11-05T04:44:34.865Z,6.84
2018-11-05T04:47:39.030Z,6.87
2018-11-05T04:50:43.147Z,6.86
2018-11-05T04:53:47.310Z,6.90
2018-11-05T04:56:51.451Z,6.76
2018-11-05T04:59:55.654Z,6.76
2018-11-05T05:02:59.802Z,6.66
2018-11-05T05:06:03.955Z,6.69
2018-11-05T05:09:11.213Z,6.72
2018-11-05T05:12:15.358Z,6.70
2018-11-05T05:15:19.499Z,6.64
2018-11-05T05:18:23.655Z,6.78
2018-11-05T05:21:27.830Z,6.79
2018-11-05T05:24:31.978Z,6.66
2018-11-05T05:27:36.126Z,6.56
2018-11-05T05:30:40.282Z,6.55
2018-11-05T05:33:44.593Z,6.73
2018-11-05T05:36:48.665Z,6.65
2018-11-05T05:39:52.814Z,6.68
2018-11-05T05:42:56.954Z,6.78
2018-11-05T05:46:01.110Z,6.37
2018-11-05T05:49:05.632Z,6.34
2018-11-05T05:52:09.782Z,6.50
2018-11-05T05:55:13.945Z,6.64
2018-11-05T05:58:18.093Z,6.64
2018-11-05T06:01:22.263Z,6.63
2018-11-05T06:04:26.449Z,6.47
2018-11-05T06:07:30.630Z,6.40
2018-11-05T06:10:34.786Z,6.27
2018-11-05T06:13:38.931Z,6.35
2018-11-05T06:16:43.075Z,6.38
2018-11-05T06:19:47.230Z,6.26
2018-11-05T06:22:51.419Z,6.14
2018-11-05T06:25:55.573Z,6.18
2018-11-05T06:28:59.767Z,6.27
2018-11-05T06:32:03.922Z,6.40
2018-11-05T06:35:08.842Z,6.45
2018-11-05T06:38:12.990Z,6.60
2018-11-05T06:41:17.192Z,6.55
2018-11-05T06:44:21.405Z,6.68
2018-11-05T06:47:25.458Z,6.93
2018-11-05T06:50:29.605Z,7.02
2018-11-05T06:53:33.764Z,7.26
2018-11-05T06:56:37.919Z,7.34
2018-11-05T06:59:42.070Z,7.40
2018-11-05T07:02:46.386Z,7.62
2018-11-05T07:05:50.574Z,7.84
2018-11-05T07:08:54.676Z,7.92
2018-11-05T07:11:58.818Z,7.99
2018-11-05T07:15:03.082Z,8.14
2018-11-05T07:18:07.242Z,8.10
2018-11-05T07:21:11.372Z,8.04
2018-11-05T07:24:15.506Z,8.20
2018-11-05T07:27:19.762Z,8.29
2018-11-05T07:30:24.886Z,8.27
2018-11-05T07:33:29.107Z,8.38
2018-11-05T07:36:33.177Z,8.37
2018-11-05T07:39:37.327Z,8.36
2018-11-05T07:42:41.566Z,8.23
2018-11-05T07:45:45.707Z,8.23
2018-11-05T07:48:49.839Z,8.35
2018-11-05T07:51:53.994Z,8.38
2018-11-05T07:54:58.320Z,8.52
2018-11-05T07:58:02.462Z,8.33
2018-11-05T08:01:07.027Z,8.08
2018-11-05T08:04:11.187Z,8.21
2018-11-05T08:07:15.335Z,8.32
2018-11-05T08:10:19.495Z,8.44
2018-11-05T08:13:23.638Z,8.42
2018-11-05T08:16:27.786Z,8.53
2018-11-05T08:19:31.943Z,8.68
2018-11-05T08:22:36.077Z,8.72
2018-11-05T08:25:40.226Z,8.78
2018-11-05T08:28:44.482Z,8.88
2018-11-05T08:31:48.637Z,9.16
2018-11-05T08:34:52.890Z,9.23
2018-11-05T08:37:57.046Z,9.32
2018-11-05T08:41:01.195Z,9.40
2018-11-05T08:44:05.933Z,9.55
2018-11-05T08:47:10.118Z,9.69
2018-11-05T08:50:15.568Z,9.83
2018-11-05T08:53:19.662Z,9.90
2018-11-05T08:56:23.819Z,10.03
2018-11-05T08:59:27.962Z,10.07
2018-11-05T09:02:32.118Z,10.17
2018-11-05T09:05:36.276Z,9.83
2018-11-05T09:08:40.428Z,9.80
2018-11-05T09:11:44.696Z,9.91
2018-11-05T09:14:48.743Z,9.91
2018-11-05T09:17:53.137Z,9.77
2018-11-05T09:20:57.342Z,9.67
2018-11-05T09:24:01.445Z,9.73
2018-11-05T09:27:06.014Z,9.87
2018-11-05T09:30:14.425Z,10.03
2018-11-05T09:33:18.574Z,10.23
2018-11-05T09:36:22.710Z,10.33
2018-11-05T09:39:26.886Z,10.43
2018-11-05T09:42:31.061Z,10.40
2018-11-05T09:45:35.306Z,10.37
2018-11-05T09:48:39.461Z,10.24
2018-11-05T09:51:43.627Z,10.50
2018-11-05T09:54:47.777Z,10.65
2018-11-05T09:57:51.926Z,10.51
2018-11-05T10:00:56.094Z,10.38
2018-11-05T10:04:00.294Z,10.54
2018-11-05T10:07:05.159Z,10.59
2018-11-05T10:10:10.607Z,10.58
2018-11-05T10:13:14.766Z,10.43
2018-11-05T10:16:18.985Z,10.51
2018-11-05T10:19:23.079Z,10.61
2018-11-05T10:22:27.242Z,10.59
2018-11-05T10:25:31.402Z,10.66
2018-11-05T10:28:35.558Z,10.69
2018-11-05T10:31:39.751Z,10.79
2018-11-05T10:34:43.879Z,10.90
2018-11-05T10:37:48.042Z,10.92
2018-11-05T10:40:52.206Z,10.92
2018-11-05T10:43:56.367Z,10.89
2018-11-05T10:47:00.521Z,10.88
2018-11-05T10:50:04.738Z,11.01
2018-11-05T10:53:08.854Z,11.10
2018-11-05T10:56:12.971Z,11.48
2018-11-05T10:59:17.090Z,11.96
2018-11-05T11:02:26.490Z,12.68
2018-11-05T11:05:31.661Z,13.53
2018-11-05T11:08:35.764Z,13.68
2018-11-05T11:11:39.870Z,13.97
2018-11-05T11:14:43.993Z,15.60
2018-11-05T11:17:48.090Z,17.35
2018-11-05T11:20:52.212Z,17.80
2018-11-05T11:23:56.322Z,17.75
2018-11-05T11:27:00.438Z,17.67
2018-11-05T11:30:04.541Z,16.93
2018-11-05T11:33:08.664Z,16.20
2018-11-05T11:36:12.776Z,16.31
2018-11-05T11:39:16.882Z,16.08
2018-11-05T11:42:21.097Z,16.05
2018-11-05T11:45:25.473Z,15.68
2018-11-05T11:48:29.577Z,15.41
2018-11-05T11:51:33.694Z,15.32
2018-11-05T11:54:37.837Z,15.23
2018-11-05T11:57:42.219Z,15.21
2018-11-05T12:00:46.329Z,15.22
2018-11-05T12:03:50.584Z,15.14
2018-11-05T12:06:54.656Z,15.21
2018-11-05T12:09:58.774Z,15.02
2018-11-05T12:13:02.892Z,14.94
2018-11-05T12:16:07.051Z,14.78
2018-11-05T12:19:11.138Z,14.69
2018-11-05T12:22:15.269Z,14.33
2018-11-05T12:25:19.379Z,14.15
2018-11-05T12:28:23.487Z,14.38
2018-11-05T12:31:27.585Z,15.22
2018-11-05T12:34:31.717Z,15.80
2018-11-05T12:37:35.831Z,16.64
2018-11-05T12:40:39.950Z,19.18
2018-11-05T12:43:44.062Z,21.33
2018-11-05T12:46:48.204Z,22.47
2018-11-05T12:49:52.320Z,23.55
2018-11-05T12:52:56.446Z,23.24
2018-11-05T12:56:00.556Z,21.29
2018-11-05T12:59:04.766Z,20.58
2018-11-05T13:02:08.874Z,19.99
2018-11-05T13:05:13.826Z,19.32
2018-11-05T13:08:17.942Z,18.68
2018-11-05T13:11:22.074Z,17.92
2018-11-05T13:14:26.178Z,19.01
2018-11-05T13:17:30.286Z,20.81
2018-11-05T13:20:34.394Z,22.09
2018-11-05T13:23:42.625Z,23.43
2018-11-05T13:26:46.758Z,24.14
2018-11-05T13:29:50.875Z,24.83
2018-11-05T13:32:54.981Z,24.33
2018-11-05T13:35:59.075Z,23.42
2018-11-05T13:39:03.195Z,23.37
2018-11-05T13:42:07.366Z,23.37
2018-11-05T13:45:12.676Z,23.10
2018-11-05T13:48:16.994Z,21.02
2018-11-05T13:51:20.794Z,20.12
2018-11-05T13:54:24.954Z,20.63
2018-11-05T13:57:29.054Z,21.24
2018-11-05T14:00:33.143Z,21.39
2018-11-05T14:03:37.250Z,20.81
2018-11-05T14:06:41.383Z,20.69
2018-11-05T14:09:46.637Z,20.12
2018-11-05T14:12:51.173Z,19.39
2018-11-05T14:15:55.218Z,18.37
2018-11-05T14:18:59.326Z,18.01
2018-11-05T14:22:03.434Z,17.56
2018-11-05T14:25:10.030Z,17.23
2018-11-05T14:28:14.493Z,16.87
2018-11-05T14:31:18.528Z,16.67
2018-11-05T14:34:22.687Z,16.37
2018-11-05T14:37:26.810Z,16.19
2018-11-05T14:40:30.971Z,16.04
2018-11-05T14:43:35.219Z,15.84
2018-11-05T14:46:39.299Z,15.74
2018-11-05T14:49:43.449Z,15.57
2018-11-05T14:52:47.633Z,15.48
2018-11-05T14:55:51.754Z,15.37
2018-11-05T14:58:56.274Z,15.22
2018-11-05T15:02:05.629Z,15.10
2018-11-05T15:05:10.957Z,14.95
2018-11-05T15:08:15.118Z,14.83
2018-11-05T15:11:19.255Z,14.68
2018-11-05T15:14:23.410Z,14.53
2018-11-05T15:17:27.559Z,14.36
2018-11-05T15:20:31.793Z,14.15
2018-11-05T15:23:35.888Z,13.97
2018-11-05T15:26:40.066Z,13.82
2018-11-05T15:29:44.192Z,13.65
2018-11-05T15:32:48.406Z,13.48
2018-11-05T15:35:52.508Z,13.29
2018-11-05T15:38:56.659Z,13.15
2018-11-05T15:42:00.818Z,13.03
2018-11-05T15:45:06.322Z,13.03
2018-11-05T15:48:10.472Z,12.90
2018-11-05T15:51:14.761Z,12.82
2018-11-05T15:54:18.882Z,12.72
2018-11-05T15:57:22.903Z,12.65
2018-11-05T16:00:27.061Z,12.48
2018-11-05T16:03:31.228Z,12.39
2018-11-05T16:06:35.390Z,12.24
2018-11-05T16:09:40.408Z,12.22
2018-11-05T16:12:44.562Z,12.10
2018-11-05T16:15:48.713Z,12.10
2018-11-05T16:18:52.866Z,12.02
2018-11-05T16:21:57.018Z,11.85
2018-11-05T16:25:01.466Z,11.77
2018-11-05T16:28:06.522Z,11.61
2018-11-05T16:31:10.661Z,11.61
2018-11-05T16:34:14.949Z,11.57
2018-11-05T16:37:19.047Z,11.44
2018-11-05T16:40:23.163Z,11.36
2018-11-05T16:43:27.279Z,11.24
2018-11-05T16:46:31.386Z,11.17
2018-11-05T16:49:35.506Z,11.14
2018-11-05T16:52:39.615Z,11.13
2018-11-05T16:55:43.742Z,11.16
2018-11-05T16:58:47.854Z,11.11
2018-11-05T17:01:52.372Z,11.09
2018-11-05T17:04:56.086Z,11.05
2018-11-05T17:08:00.291Z,10.99
2018-11-05T17:11:04.447Z,10.97
2018-11-05T17:14:08.598Z,10.81
2018-11-05T17:17:12.815Z,10.77
2018-11-05T17:20:18.124Z,10.73
2018-11-05T17:23:22.271Z,10.69
2018-11-05T17:26:26.491Z,10.58
2018-11-05T17:29:30.530Z,10.54
2018-11-05T17:32:34.690Z,10.47
2018-11-05T17:35:38.843Z,10.37
2018-11-05T17:38:43.068Z,10.35
2018-11-05T17:41:47.247Z,10.36
2018-11-05T17:44:51.407Z,10.31
2018-11-05T17:47:55.569Z,10.23
2018-11-05T17:50:59.845Z,10.15
2018-11-05T17:54:03.982Z,10.04
2018-11-05T17:57:08.293Z,9.99
2018-11-05T18:00:14.953Z,10.01
2018-11-05T18:03:19.088Z,10.00
2018-11-05T18:06:23.246Z,10.02
2018-11-05T18:09:27.442Z,9.96
2018-11-05T18:12:31.564Z,9.94
2018-11-05T18:15:35.785Z,9.94
2018-11-05T18:18:39.886Z,9.98
2018-11-05T18:21:44.030Z,9.95
2018-11-05T18:24:48.256Z,9.88
2018-11-05T18:27:52.404Z,9.81
2018-11-05T18:30:56.566Z,9.85
2018-11-05T18:34:00.659Z,9.75
2018-11-05T18:37:04.759Z,9.74
2018-11-05T18:40:11.390Z,9.73
2018-11-05T18:43:15.500Z,9.68
2018-11-05T18:46:19.611Z,9.70
2018-11-05T18:49:23.703Z,9.62
2018-11-05T18:52:27.806Z,9.58
2018-11-05T18:55:31.918Z,9.51
2018-11-05T18:58:36.022Z,9.43
2018-11-05T19:01:40.143Z,9.36
2018-11-05T19:04:44.290Z,9.31
2018-11-05T19:07:48.625Z,9.15
2018-11-05T19:10:52.743Z,9.11
2018-11-05T19:13:57.171Z,8.97
2018-11-05T19:17:01.282Z,8.93
2018-11-05T19:20:06.678Z,8.87
2018-11-05T19:23:10.875Z,8.87
2018-11-05T19:26:14.902Z,8.80
2018-11-05T19:29:19.009Z,8.81
2018-11-05T19:32:23.127Z,8.80
2018-11-05T19:35:27.234Z,8.72
2018-11-05T19:38:31.334Z,8.69
2018-11-05T19:41:35.475Z,8.65
2018-11-05T19:44:39.659Z,8.60
2018-11-05T19:47:43.798Z,8.57
2018-11-05T19:50:47.931Z,8.44
2018-11-05T19:53:52.055Z,8.40
2018-11-05T19:56:56.167Z,8.52
2018-11-05T20:00:00.292Z,8.48
2018-11-05T20:03:04.423Z,8.38
2018-11-05T20:06:08.592Z,8.38
2018-11-05T20:09:12.640Z,8.32
2018-11-05T20:12:16.771Z,8.23
2018-11-05T20:15:20.940Z,8.35
2018-11-05T20:18:25.036Z,8.26
2018-11-05T20:21:29.108Z,8.20
2018-11-05T20:24:33.223Z,8.24
2018-11-05T20:27:38.226Z,8.17
2018-11-05T20:30:42.331Z,8.16
2018-11-05T20:33:46.710Z,8.19
2018-11-05T20:36:50.678Z,8.19
2018-11-05T20:39:54.939Z,8.21
2018-11-05T20:42:58.975Z,8.20
2018-11-05T20:46:03.110Z,8.17
2018-11-05T20:49:07.263Z,8.12
2018-11-05T20:52:11.416Z,8.12
2018-11-05T20:55:16.606Z,8.15
2018-11-05T20:58:20.807Z,8.16
2018-11-05T21:01:24.967Z,8.16
2018-11-05T21:04:29.123Z,8.13
2018-11-05T21:07:33.278Z,8.09
2018-11-05T21:10:37.422Z,8.17
2018-11-05T21:13:41.801Z,8.11
2018-11-05T21:16:45.986Z,8.08
2018-11-05T21:19:50.091Z,8.08
2018-11-05T21:22:54.403Z,8.01
2018-11-05T21:25:58.385Z,7.96
2018-11-05T21:29:02.561Z,7.90
2018-11-05T21:32:06.687Z,7.86
2018-11-05T21:35:13.200Z,7.84
2018-11-05T21:38:17.301Z,7.73
2018-11-05T21:41:21.405Z,7.61
2018-11-05T21:44:25.525Z,7.52
2018-11-05T21:47:29.743Z,7.52
2018-11-05T21:50:33.772Z,7.56
2018-11-05T21:53:37.885Z,7.57
2018-11-05T21:56:41.998Z,7.50
2018-11-05T21:59:46.114Z,7.50
2018-11-05T22:02:55.515Z,7.44
2018-11-05T22:05:59.729Z,7.34
2018-11-05T22:09:03.992Z,7.26
2018-11-05T22:12:08.090Z,7.16
2018-11-05T22:15:12.219Z,7.27
2018-11-05T22:18:17.458Z,7.21
2018-11-05T22:21:21.575Z,7.18
2018-11-05T22:24:25.701Z,7.20
2018-11-05T22:27:29.967Z,7.25
2018-11-05T22:30:34.002Z,7.14
2018-11-05T22:33:38.105Z,7.13
2018-11-05T22:36:42.223Z,7.25
2018-11-05T22:39:46.318Z,7.17
2018-11-05T22:42:50.417Z,7.18
2018-11-05T22:45:54.522Z,7.18
2018-11-05T22:48:58.622Z,7.10
2018-11-05T22:52:02.738Z,7.09
2018-11-05T22:55:07.272Z,7.15
2018-11-05T22:58:11.384Z,7.07
2018-11-05T23:01:20.834Z,7.02
2018-11-05T23:04:24.955Z,7.02
2018-11-05T23:07:29.071Z,7.06
2018-11-05T23:10:33.177Z,7.05
2018-11-05T23:13:37.293Z,7.00
2018-11-05T23:16:41.413Z,7.06
2018-11-05T23:19:45.513Z,7.05
2018-11-05T23:22:49.629Z,6.97
2018-11-05T23:25:53.744Z,7.01
2018-11-05T23:28:57.862Z,6.80
2018-11-05T23:32:01.992Z,6.88
2018-11-05T23:35:06.724Z,6.80
2018-11-05T23:38:10.832Z,6.75
2018-11-05T23:41:14.955Z,6.69
2018-11-05T23:44:19.077Z,6.66
2018-11-05T23:47:27.604Z,6.62
2018-11-05T23:50:31.702Z,6.63
2018-11-05T23:53:35.813Z,6.65
2018-11-05T23:56:39.921Z,6.60
2018-11-05T23:59:44.037Z,6.59
